createdAt,value
2019-01-04T00:01:45.503Z,-3.10
2019-01-04T00:04:26.586Z,-3.00
2019-01-04T00:07:08.166Z,-3.00
2019-01-04T00:09:48.963Z,-3.00
2019-01-04T00:12:29.806Z,-3.00
2019-01-04T00:15:11.073Z,-3.10
2019-01-04T00:17:51.970Z,-3.00
2019-01-04T00:20:33.116Z,-3.00
2019-01-04T00:23:14.460Z,-3.00
2019-01-04T00:25:56.027Z,-3.00
2019-01-04T00:28:36.823Z,-3.00
2019-01-04T00:31:17.713Z,-3.00
2019-01-04T00:33:59.193Z,-3.00
2019-01-04T00:36:40.111Z,-3.00
2019-01-04T00:39:20.051Z,-3.00
2019-01-04T00:42:01.317Z,-3.00
2019-01-04T00:44:42.923Z,-2.90
2019-01-04T00:47:24.738Z,-2.90
2019-01-04T00:50:06.219Z,-2.90
2019-01-04T00:52:46.733Z,-3.00
2019-01-04T00:55:28.171Z,-2.90
2019-01-04T00:58:09.283Z,-3.00
2019-01-04T01:00:50.450Z,-3.00
2019-01-04T01:04:13.188Z,-3.00
2019-01-04T01:06:54.098Z,-3.00
2019-01-04T01:09:35.107Z,-3.00
2019-01-04T01:12:16.419Z,-3.00
2019-01-04T01:14:57.904Z,-3.00
2019-01-04T01:17:39.455Z,-3.10
2019-01-04T01:20:20.296Z,-3.00
2019-01-04T01:23:01.983Z,-3.00
2019-01-04T01:25:43.417Z,-3.00
2019-01-04T01:32:11.492Z,-3.00
2019-01-04T01:34:53.147Z,-3.00
2019-01-04T01:37:34.758Z,-3.00
2019-01-04T01:40:15.920Z,-2.90
2019-01-04T01:42:57.557Z,-3.00
2019-01-04T01:45:38.557Z,-3.00
2019-01-04T01:48:20.106Z,-3.00
2019-01-04T01:51:01.724Z,-3.00
2019-01-04T01:53:42.512Z,-3.00
2019-01-04T01:56:24.087Z,-3.00
2019-01-04T01:59:04.748Z,-3.00
2019-01-04T02:01:46.191Z,-2.90
2019-01-04T02:04:27.130Z,-3.00
2019-01-04T02:07:07.969Z,-3.00
2019-01-04T02:09:48.833Z,-3.00
2019-01-04T02:12:30.459Z,-3.00
2019-01-04T02:15:11.770Z,-3.00
2019-01-04T02:17:52.740Z,-3.10
2019-01-04T02:20:34.286Z,-3.00
2019-01-04T02:23:16.220Z,-3.10
2019-01-04T02:25:57.871Z,-3.00
2019-01-04T02:28:39.273Z,-3.10
2019-01-04T02:31:20.457Z,-3.10
2019-01-04T02:34:01.579Z,-3.00
2019-01-04T02:36:42.119Z,-3.00
2019-01-04T02:39:23.461Z,-3.00
2019-01-04T02:42:04.523Z,-3.00
2019-01-04T02:44:45.816Z,-3.00
2019-01-04T02:47:26.650Z,-3.00
2019-01-04T02:50:08.655Z,-3.00
2019-01-04T02:52:49.819Z,-3.10
2019-01-04T02:55:31.478Z,-3.00
2019-01-04T02:58:13.025Z,-3.00
2019-01-04T03:00:54.016Z,-3.00
2019-01-04T03:03:34.822Z,-3.00
2019-01-04T03:06:16.548Z,-3.00
2019-01-04T03:08:57.677Z,-3.00
2019-01-04T03:11:38.234Z,-3.00
2019-01-04T03:14:19.805Z,-2.90
2019-01-04T03:17:01.418Z,-3.00
2019-01-04T03:19:43.028Z,-3.00
2019-01-04T03:22:23.579Z,-2.90
2019-01-04T03:25:04.191Z,-2.90
2019-01-04T03:27:43.596Z,-3.00
2019-01-04T03:30:32.559Z,-2.90
2019-01-04T03:33:14.109Z,-2.90
2019-01-04T03:35:55.984Z,-2.90
2019-01-04T03:38:37.335Z,-2.90
2019-01-04T03:41:18.791Z,-2.90
2019-01-04T03:43:58.356Z,-2.90
2019-01-04T03:46:46.887Z,-3.00
2019-01-04T03:49:28.170Z,-3.00
2019-01-04T03:52:09.025Z,-2.90
2019-01-04T03:54:50.638Z,-2.90
2019-01-04T03:57:32.326Z,-2.90
2019-01-04T04:00:13.087Z,-2.80
2019-01-04T04:02:54.565Z,-2.80
2019-01-04T04:05:35.505Z,-2.80
2019-01-04T04:08:17.074Z,-2.90
2019-01-04T04:10:57.879Z,-2.80
2019-01-04T04:13:37.262Z,-3.00
2019-01-04T04:16:25.807Z,-3.00
2019-01-04T04:19:07.109Z,-3.10
2019-01-04T04:21:48.203Z,-3.10
2019-01-04T04:24:29.800Z,-3.20
2019-01-04T04:27:11.360Z,-3.10
2019-01-04T04:29:52.663Z,-3.10
2019-01-04T04:32:33.577Z,-3.20
2019-01-04T04:35:13.209Z,-3.10
2019-01-04T04:37:54.024Z,-3.10
2019-01-04T04:40:34.978Z,-3.10
2019-01-04T04:43:16.567Z,-3.10
2019-01-04T04:45:58.525Z,-3.10
2019-01-04T04:48:40.115Z,-3.10
2019-01-04T04:51:21.163Z,-3.20
2019-01-04T04:54:02.864Z,-3.10
2019-01-04T04:56:44.458Z,-3.10
2019-01-04T04:59:24.977Z,-3.10
2019-01-04T05:02:04.820Z,-3.10
2019-01-04T05:04:45.410Z,-3.10
2019-01-04T05:07:26.991Z,-3.10
2019-01-04T05:10:07.566Z,-3.10
2019-01-04T05:12:48.412Z,-3.00
2019-01-04T05:15:30.143Z,-3.00
2019-01-04T05:18:11.475Z,-3.00
2019-01-04T05:20:53.108Z,-3.00
2019-01-04T05:23:35.058Z,-3.00
2019-01-04T05:26:16.260Z,-3.00
2019-01-04T05:28:57.867Z,-3.00
2019-01-04T05:31:38.403Z,-3.00
2019-01-04T05:34:19.357Z,-3.00
2019-01-04T05:37:00.997Z,-3.00
2019-01-04T05:39:42.539Z,-3.10
2019-01-04T05:42:23.799Z,-3.10
2019-01-04T05:45:05.709Z,-3.00
2019-01-04T05:47:47.221Z,-3.10
2019-01-04T05:50:28.282Z,-3.10
2019-01-04T05:53:08.988Z,-3.10
2019-01-04T05:55:49.554Z,-3.10
2019-01-04T05:58:30.499Z,-3.10
2019-01-04T06:01:11.751Z,-3.10
2019-01-04T06:03:53.405Z,-3.10
2019-01-04T06:06:34.879Z,-3.10
2019-01-04T06:09:16.934Z,-3.20
2019-01-04T06:11:58.064Z,-3.10
2019-01-04T06:14:39.088Z,-3.20
2019-01-04T06:17:19.912Z,-3.10
2019-01-04T06:19:59.594Z,-3.10
2019-01-04T06:22:47.861Z,-3.10
2019-01-04T06:25:29.158Z,-3.10
2019-01-04T06:28:09.327Z,-3.10
2019-01-04T06:30:50.390Z,-3.10
2019-01-04T06:33:31.241Z,-3.20
2019-01-04T06:36:12.411Z,-3.20
2019-01-04T06:38:53.732Z,-3.20
2019-01-04T06:41:35.103Z,-3.20
2019-01-04T06:44:16.381Z,-3.20
2019-01-04T06:46:58.005Z,-3.20
2019-01-04T06:49:39.692Z,-3.20
2019-01-04T06:52:21.212Z,-3.20
2019-01-04T06:55:44.146Z,-3.20
2019-01-04T06:58:32.787Z,-3.20
2019-01-04T07:01:14.296Z,-3.20
2019-01-04T07:03:55.258Z,-3.10
2019-01-04T07:06:36.989Z,-3.10
2019-01-04T07:09:18.756Z,-3.10
2019-01-04T07:12:00.284Z,-3.10
2019-01-04T07:14:41.774Z,-3.10
2019-01-04T07:17:22.475Z,-3.00
2019-01-04T07:20:03.454Z,-3.00
2019-01-04T07:22:44.547Z,-3.10
2019-01-04T07:25:26.139Z,-3.10
2019-01-04T07:28:07.539Z,-3.10
2019-01-04T07:30:49.085Z,-3.10
2019-01-04T07:33:28.562Z,-3.20
2019-01-04T07:36:09.497Z,-3.20
2019-01-04T07:38:50.401Z,-3.00
2019-01-04T07:41:32.078Z,-3.00
2019-01-04T07:44:13.367Z,-3.00
2019-01-04T07:46:54.574Z,-2.90
2019-01-04T07:49:35.595Z,-2.80
2019-01-04T07:52:16.743Z,-2.80
2019-01-04T07:54:58.441Z,-2.70
2019-01-04T07:57:38.996Z,-2.60
2019-01-04T08:00:20.088Z,-2.50
2019-01-04T08:03:01.183Z,-2.50
2019-01-04T08:05:41.754Z,-2.50
2019-01-04T08:08:23.086Z,-2.40
2019-01-04T08:11:03.941Z,-2.30
2019-01-04T08:13:45.705Z,-2.20
2019-01-04T08:16:27.259Z,-2.10
2019-01-04T08:19:06.684Z,-2.00
2019-01-04T08:21:54.937Z,-1.90
2019-01-04T08:24:36.629Z,-1.90
2019-01-04T08:27:17.495Z,-1.90
2019-01-04T08:29:57.051Z,-1.80
2019-01-04T08:32:45.338Z,-1.90
2019-01-04T08:35:26.014Z,-2.10
2019-01-04T08:38:07.116Z,-1.80
2019-01-04T08:40:48.483Z,-1.70
2019-01-04T08:43:30.044Z,-1.80
2019-01-04T08:46:11.781Z,-1.70
2019-01-04T08:48:53.430Z,-1.80
2019-01-04T08:51:34.547Z,-1.90
2019-01-04T08:54:16.256Z,-1.70
2019-01-04T08:56:55.853Z,-1.80
2019-01-04T08:59:37.592Z,-1.80
2019-01-04T09:02:18.756Z,-1.80
2019-01-04T09:04:59.397Z,-1.90
2019-01-04T09:07:39.025Z,-1.90
2019-01-04T09:10:28.040Z,-1.90
2019-01-04T09:13:08.040Z,-1.90
2019-01-04T09:15:49.614Z,-1.80
2019-01-04T09:18:31.454Z,-1.90
2019-01-04T09:21:13.014Z,-2.00
2019-01-04T09:23:54.356Z,-2.00
2019-01-04T09:26:34.956Z,-1.90
2019-01-04T09:29:16.703Z,-1.90
2019-01-04T09:31:57.913Z,-1.80
2019-01-04T09:34:39.648Z,-1.90
2019-01-04T09:37:21.547Z,-1.80
2019-01-04T09:40:02.396Z,-1.70
2019-01-04T09:42:43.484Z,-1.60
2019-01-04T09:45:25.238Z,-1.50
2019-01-04T09:48:06.480Z,-1.50
2019-01-04T09:50:47.570Z,-1.60
2019-01-04T09:53:28.819Z,-1.50
2019-01-04T09:56:10.062Z,-1.50
2019-01-04T09:58:51.757Z,-1.50
2019-01-04T10:01:33.307Z,-1.60
2019-01-04T10:04:14.253Z,-1.70
2019-01-04T10:06:55.370Z,-1.50
2019-01-04T10:09:37.027Z,-1.50
2019-01-04T10:12:18.158Z,-1.50
2019-01-04T10:15:00.169Z,-1.30
2019-01-04T10:17:41.391Z,-1.30
2019-01-04T10:20:21.975Z,-1.30
2019-01-04T10:23:02.989Z,-1.20
2019-01-04T10:25:45.021Z,-1.20
2019-01-04T10:28:26.195Z,-1.20
2019-01-04T10:31:07.339Z,-1.30
2019-01-04T10:33:48.380Z,-1.20
2019-01-04T10:36:29.464Z,-1.10
2019-01-04T10:39:09.285Z,-1.00
2019-01-04T10:41:49.914Z,-1.10
2019-01-04T10:44:30.877Z,-1.10
2019-01-04T10:47:11.792Z,-1.00
2019-01-04T10:49:53.120Z,-0.90
2019-01-04T10:52:34.250Z,-0.90
2019-01-04T10:55:16.014Z,-1.00
2019-01-04T10:57:57.358Z,-1.00
2019-01-04T11:00:39.225Z,-1.10
2019-01-04T11:03:20.472Z,-1.00
2019-01-04T11:06:01.383Z,-0.90
2019-01-04T11:08:42.403Z,-0.70
2019-01-04T11:11:23.645Z,-0.80
2019-01-04T11:14:04.842Z,-0.90
2019-01-04T11:16:46.205Z,-0.90
2019-01-04T11:19:27.199Z,-1.10
2019-01-04T11:22:08.163Z,-1.00
2019-01-04T11:24:49.092Z,-1.10
2019-01-04T11:27:30.211Z,-1.00
2019-01-04T11:30:11.691Z,-1.10
2019-01-04T11:32:52.270Z,-1.10
2019-01-04T11:35:33.630Z,-1.20
2019-01-04T11:38:15.389Z,-1.20
2019-01-04T11:40:57.081Z,-1.20
2019-01-04T11:43:38.403Z,-1.20
2019-01-04T11:46:19.139Z,-1.40
2019-01-04T11:49:00.150Z,-1.20
2019-01-04T11:51:41.261Z,-1.20
2019-01-04T11:54:22.215Z,-1.20
2019-01-04T11:57:03.630Z,-1.20
2019-01-04T11:59:44.078Z,-1.30
2019-01-04T12:02:26.466Z,-1.20
2019-01-04T12:05:06.168Z,-1.30
2019-01-04T12:07:46.791Z,-1.20
2019-01-04T12:10:28.361Z,-1.20
2019-01-04T12:13:09.699Z,-1.20
2019-01-04T12:15:50.633Z,-1.30
2019-01-04T12:18:32.351Z,-1.20
2019-01-04T12:21:13.616Z,-1.20
2019-01-04T12:23:54.918Z,-1.20
2019-01-04T12:26:36.100Z,-1.30
2019-01-04T12:29:17.734Z,-1.20
2019-01-04T12:31:58.695Z,-1.30
2019-01-04T12:34:39.974Z,-1.30
2019-01-04T12:37:20.558Z,-1.30
2019-01-04T12:40:02.020Z,-1.40
2019-01-04T12:42:43.211Z,-1.50
2019-01-04T12:45:25.185Z,-1.50
2019-01-04T12:48:06.695Z,-1.50
2019-01-04T12:50:47.266Z,-1.40
2019-01-04T12:53:35.856Z,-1.50
2019-01-04T12:56:16.944Z,-1.50
2019-01-04T12:58:58.709Z,-1.50
2019-01-04T13:01:39.869Z,-1.50
2019-01-04T13:04:21.287Z,-1.40
2019-01-04T13:07:01.827Z,-1.50
2019-01-04T13:09:42.451Z,-1.50
2019-01-04T13:12:24.054Z,-1.50
2019-01-04T13:15:04.568Z,-1.60
2019-01-04T13:17:45.707Z,-1.60
2019-01-04T13:20:27.166Z,-1.60
2019-01-04T13:23:08.605Z,-1.60
2019-01-04T13:25:49.849Z,-1.70
2019-01-04T13:28:31.405Z,-1.70
2019-01-04T13:31:12.820Z,-1.70
2019-01-04T13:33:53.985Z,-1.70
2019-01-04T13:36:35.732Z,-1.70
2019-01-04T13:39:17.340Z,-1.70
2019-01-04T13:41:58.624Z,-1.80
2019-01-04T13:44:39.405Z,-1.70
2019-01-04T13:47:20.905Z,-1.70
2019-01-04T13:50:02.660Z,-1.70
2019-01-04T13:52:43.955Z,-1.70
2019-01-04T13:55:24.778Z,-1.80
2019-01-04T13:58:06.536Z,-1.80
2019-01-04T14:00:47.975Z,-1.90
2019-01-04T14:03:29.929Z,-1.90
2019-01-04T14:06:11.540Z,-1.90
2019-01-04T14:08:53.215Z,-1.90
2019-01-04T14:11:34.382Z,-2.00
2019-01-04T14:14:15.864Z,-2.00
2019-01-04T14:16:55.877Z,-2.10
2019-01-04T14:19:44.571Z,-2.20
2019-01-04T14:22:26.630Z,-2.20
2019-01-04T14:25:07.644Z,-2.20
2019-01-04T14:27:48.648Z,-2.30
2019-01-04T14:30:28.664Z,-2.30
2019-01-04T14:33:10.079Z,-2.40
2019-01-04T14:35:51.482Z,-2.40
2019-01-04T14:38:32.684Z,-2.40
2019-01-04T14:41:13.403Z,-2.40
2019-01-04T14:43:54.872Z,-2.50
2019-01-04T14:46:35.795Z,-2.50
2019-01-04T14:49:17.223Z,-2.50
2019-01-04T14:51:58.430Z,-2.50
2019-01-04T14:54:39.791Z,-2.60
2019-01-04T14:57:20.664Z,-2.60
2019-01-04T15:00:01.678Z,-2.60
2019-01-04T15:02:42.912Z,-2.50
2019-01-04T15:05:24.021Z,-2.50
2019-01-04T15:08:06.139Z,-2.50
2019-01-04T15:10:47.409Z,-2.50
2019-01-04T15:13:29.100Z,-2.50
2019-01-04T15:16:09.992Z,-2.60
2019-01-04T15:18:51.274Z,-2.60
2019-01-04T15:21:33.027Z,-2.50
2019-01-04T15:24:14.307Z,-2.60
2019-01-04T15:26:55.227Z,-2.60
2019-01-04T15:29:36.156Z,-2.60
2019-01-04T15:32:17.908Z,-2.60
2019-01-04T15:34:59.135Z,-2.60
2019-01-04T15:37:40.713Z,-2.60
2019-01-04T15:40:22.063Z,-2.70
2019-01-04T15:43:03.779Z,-2.70
2019-01-04T15:45:44.624Z,-2.60
2019-01-04T15:48:26.181Z,-2.60
2019-01-04T15:51:07.565Z,-2.60
2019-01-04T15:53:49.206Z,-2.70
2019-01-04T15:56:30.472Z,-2.60
2019-01-04T15:59:12.415Z,-2.70
2019-01-04T16:01:53.640Z,-2.70
2019-01-04T16:04:34.249Z,-2.70
2019-01-04T16:07:16.153Z,-2.80
2019-01-04T16:09:57.927Z,-2.70
2019-01-04T16:12:38.937Z,-2.70
2019-01-04T16:15:20.888Z,-2.70
2019-01-04T16:18:02.325Z,-2.70
2019-01-04T16:20:43.571Z,-2.70
2019-01-04T16:23:25.355Z,-2.70
2019-01-04T16:26:07.072Z,-2.60
2019-01-04T16:28:48.025Z,-2.60
2019-01-04T16:31:27.880Z,-2.60
2019-01-04T16:37:09.932Z,-2.70
2019-01-04T16:39:51.697Z,-2.60
2019-01-04T16:42:32.792Z,-2.70
2019-01-04T16:45:13.211Z,-2.60
2019-01-04T16:48:01.981Z,-2.70
2019-01-04T16:50:43.026Z,-2.70
2019-01-04T16:53:24.390Z,-2.60
2019-01-04T16:56:04.026Z,-2.70
2019-01-04T16:58:52.332Z,-2.70
2019-01-04T17:01:34.375Z,-2.70
2019-01-04T17:04:15.893Z,-2.70
2019-01-04T17:06:57.360Z,-2.70
2019-01-04T17:09:38.589Z,-2.70
2019-01-04T17:12:19.469Z,-2.70
2019-01-04T17:15:01.342Z,-2.70
2019-01-04T17:17:43.113Z,-2.60
2019-01-04T17:20:24.383Z,-2.70
2019-01-04T17:23:06.543Z,-2.60
2019-01-04T17:25:46.273Z,-2.60
2019-01-04T17:28:25.889Z,-2.60
2019-01-04T17:31:06.645Z,-2.60
2019-01-04T17:33:48.368Z,-2.50
2019-01-04T17:36:29.434Z,-2.50
2019-01-04T17:39:10.007Z,-2.50
2019-01-04T17:41:58.885Z,-2.60
2019-01-04T17:44:40.301Z,-2.50
2019-01-04T17:47:22.089Z,-2.50
2019-01-04T17:50:03.853Z,-2.50
2019-01-04T17:52:45.013Z,-2.50
2019-01-04T17:55:25.046Z,-2.50
2019-01-04T17:58:13.515Z,-2.50
2019-01-04T18:00:55.069Z,-2.50
2019-01-04T18:03:36.493Z,-2.50
2019-01-04T18:06:17.173Z,-2.50
2019-01-04T18:08:58.975Z,-2.40
2019-01-04T18:11:40.556Z,-2.50
2019-01-04T18:14:21.175Z,-2.50
2019-01-04T18:17:03.061Z,-2.40
2019-01-04T18:19:44.109Z,-2.40
2019-01-04T18:22:25.130Z,-2.40
2019-01-04T18:25:04.949Z,-2.40
2019-01-04T18:27:45.994Z,-2.40
2019-01-04T18:30:27.452Z,-2.30
2019-01-04T18:33:08.758Z,-2.30
2019-01-04T18:35:50.026Z,-2.30
2019-01-04T18:38:30.802Z,-2.30
2019-01-04T18:41:12.776Z,-2.30
2019-01-04T18:43:54.335Z,-2.30
2019-01-04T18:46:36.077Z,-2.30
2019-01-04T18:49:17.120Z,-2.30
2019-01-04T18:51:59.060Z,-2.30
2019-01-04T18:54:39.968Z,-2.30
2019-01-04T18:57:22.363Z,-2.30
2019-01-04T19:00:03.445Z,-2.20
2019-01-04T19:02:45.305Z,-2.20
2019-01-04T19:05:26.412Z,-2.20
2019-01-04T19:08:08.222Z,-2.20
2019-01-04T19:10:49.580Z,-2.20
2019-01-04T19:13:32.775Z,-2.20
2019-01-04T19:16:14.100Z,-2.20
2019-01-04T19:18:55.346Z,-2.20
2019-01-04T19:21:36.613Z,-2.10
2019-01-04T19:24:18.615Z,-2.10
2019-01-04T19:26:59.520Z,-2.10
2019-01-04T19:29:41.272Z,-2.10
2019-01-04T19:32:22.152Z,-2.10
2019-01-04T19:35:03.630Z,-2.10
2019-01-04T19:37:44.880Z,-2.10
2019-01-04T19:40:26.356Z,-2.10
2019-01-04T19:43:07.884Z,-2.10
2019-01-04T19:45:49.367Z,-2.10
2019-01-04T19:48:30.911Z,-2.10
2019-01-04T19:51:11.134Z,-2.10
2019-01-04T19:53:52.327Z,-2.10
2019-01-04T19:56:34.286Z,-2.10
2019-01-04T19:59:16.223Z,-2.10
2019-01-04T20:01:57.515Z,-2.10
2019-01-04T20:04:38.697Z,-2.10
2019-01-04T20:07:39.043Z,-2.10
2019-01-04T20:10:38.852Z,-2.10
2019-01-04T20:13:39.862Z,-2.10
2019-01-04T20:16:39.466Z,-2.10
2019-01-04T20:19:42.592Z,-2.10
2019-01-04T20:22:44.032Z,-2.10
2019-01-04T20:25:47.165Z,-2.10
2019-01-04T20:28:47.011Z,-2.10
2019-01-04T20:31:46.959Z,-2.00
2019-01-04T20:34:47.252Z,-2.00
2019-01-04T20:37:47.677Z,-2.00
2019-01-04T20:40:48.091Z,-2.00
2019-01-04T20:43:48.562Z,-2.00
2019-01-04T20:46:51.420Z,-2.00
2019-01-04T20:49:51.927Z,-2.00
2019-01-04T20:52:51.901Z,-2.00
2019-01-04T20:55:52.320Z,-2.00
2019-01-04T20:58:52.726Z,-1.90
2019-01-04T21:01:52.663Z,-2.00
2019-01-04T21:04:52.470Z,-1.90
2019-01-04T21:07:53.150Z,-1.90
2019-01-04T21:10:56.013Z,-1.90
2019-01-04T21:13:55.958Z,-1.90
2019-01-04T21:16:56.139Z,-1.90
2019-01-04T21:20:02.600Z,-1.80
2019-01-04T21:23:03.003Z,-1.80
2019-01-04T21:26:08.787Z,-1.80
2019-01-04T21:29:08.778Z,-1.80
2019-01-04T21:32:14.306Z,-1.80
2019-01-04T21:35:14.019Z,-1.80
2019-01-04T21:38:14.774Z,-1.80
2019-01-04T21:41:14.596Z,-1.80
2019-01-04T21:47:35.758Z,-1.80
2019-01-04T21:50:35.396Z,-1.80
2019-01-04T21:56:50.800Z,-1.80
2019-01-04T21:59:50.456Z,-1.80
2019-01-04T22:02:50.935Z,-1.80
2019-01-04T22:05:50.853Z,-1.80
2019-01-04T22:08:54.134Z,-1.80
2019-01-04T22:11:54.123Z,-1.80
2019-01-04T22:14:59.424Z,-1.80
2019-01-04T22:18:02.062Z,-1.80
2019-01-04T22:21:02.161Z,-1.80
2019-01-04T22:24:01.786Z,-1.70
2019-01-04T22:27:01.800Z,-1.70
2019-01-04T22:30:02.288Z,-1.70
2019-01-04T22:36:20.175Z,-1.70
2019-01-04T22:39:25.406Z,-1.60
2019-01-04T22:45:37.453Z,-1.60
2019-01-04T22:48:43.328Z,-1.60
2019-01-04T22:51:43.602Z,-1.60
2019-01-04T22:54:43.397Z,-1.60
2019-01-04T22:57:46.318Z,-1.60
2019-01-04T23:00:46.099Z,-1.60
2019-01-04T23:03:48.810Z,-1.60
2019-01-04T23:06:48.409Z,-1.60
2019-01-04T23:09:48.634Z,-1.60
2019-01-04T23:12:48.563Z,-1.60
2019-01-04T23:15:45.947Z,-1.60
2019-01-04T23:18:47.292Z,-1.60
2019-01-04T23:21:47.727Z,-1.60
2019-01-04T23:24:47.797Z,-1.50
2019-01-04T23:27:47.588Z,-1.50
2019-01-04T23:30:48.222Z,-1.50
2019-01-04T23:33:48.657Z,-1.50
2019-01-04T23:36:48.621Z,-1.50
2019-01-04T23:39:48.827Z,-1.50
2019-01-04T23:42:48.647Z,-1.50
2019-01-04T23:45:46.459Z,-1.50
2019-01-04T23:48:46.599Z,-1.50
2019-01-04T23:51:46.916Z,-1.40
2019-01-04T23:54:46.704Z,-1.40
2019-01-04T23:57:47.080Z,-1.40
